Mount Pleasant, TX (75455)

2:50 PM CST on February 09, 2016 (GMT -0600)
Union Hill Road at CR 4640 | | Change Station
CLOSE
Current Station
Personal Weather Station
Location: Mount Pleasant, TX
Elevation: 425 ft
Nearby Weather Stations
Active Advisory: Lake Wind Advisory

Elev 425 ft 33.09 °N, 94.90 °W | Updated 9 seconds ago

Clear
Clear
56.6 °F
Feels Like 56.6 °F
N
18.0
Wind Variable Wind from West
Gusts 23.0 mph

Today
High -- | Low -- °F
--% Chance of Precip.
Yesterday
High -- | Low -- °F
Precip. -- in
Pressure 30.20 in
Visibility 10.0 miles
Clouds Clear
Dew Point 26 °F
Humidity 31%
Rainfall 0.00 in
Snow Depth Not available.
7:09 AM 5:59 PM
New Moon, 2% visible
METAR KOSA 092035Z AUTO 30018G24KT 10SM CLR 13/M07 A3020 RMK AO1 T01331066
Pressure 30.20 in
Visibility 10.0 miles
Clouds Clear
Dew Point 26 °F
Humidity 31%
Rainfall 0.00 in
Snow Depth Not available.
7:09 AM 5:59 PM
New Moon, 2% visible
METAR KOSA 092035Z AUTO 30018G24KT 10SM CLR 13/M07 A3020 RMK AO1 T01331066

10-Day Weather Forecast

Almanac

Astronomy

Feb. 09, 2016 Rise Set
Actual Time
Civil Twilight
Nautical Twilight
Astronomical Twilight
Moon
Length of Visible Light
Length of Day
Tomorrow will be .
, % of the Moon is Illuminated

Today's Extremes

State Highs State Lows

Community

WunderPhotos

Upload Photos

1,891,683 photos uploaded!

WunderBlog® & News

Nearby

Air Quality

  Air Quality AQ Index Pollutant
Not available.

Snow Depth

Station Depth Elevation

Earthquake Activity

City Distance Mag. Time & Date
Minimum magnitude displayed is 2.5.

Coastal Water Temperatures

Place Temperature

Stations

Nearby Weather Stations

Station Location Temp. Windchill Dew Point Humidity Wind Precip. Elev Updated Type
                   

Watches & Warnings

Lake Wind Advisory
Issued: 10:46 AM CST Feb. 9, 2016 – National Weather Service

... Lake Wind Advisory remains in effect until 4 PM CST this
afternoon...

* event... northwesterly winds between 15 and 20 mph with gusts up
to 25 to 30 mph.

* Timing... through mid afternoon.

* Impact... boaters should exercise caution on area lakes due to
rough conditions.

Precautionary/preparedness actions...

A lake Wind Advisory indicates that winds will cause rough chop
on area lakes. Small boats will be especially prone to capsizing.



12